sensor_id;sensor_type;location;lat;lon;timestamp;pressure;altitude;pressure_sealevel;temperature;humidity
37634;BME280;32048;49.902;22.508;2022-12-29T00:01:42;98922.28;;;3.29;72.55
37634;BME280;32048;49.902;22.508;2022-12-29T00:04:12;98911.06;;;3.26;72.83
37634;BME280;32048;49.902;22.508;2022-12-29T00:06:42;98933.63;;;3.28;72.29
37634;BME280;32048;49.902;22.508;2022-12-29T00:09:13;98927.50;;;3.29;71.97
37634;BME280;32048;49.902;22.508;2022-12-29T00:11:40;98932.72;;;3.29;72.08
37634;BME280;32048;49.902;22.508;2022-12-29T00:14:11;98930.03;;;3.34;71.42
37634;BME280;32048;49.902;22.508;2022-12-29T00:17:07;98929.03;;;3.41;70.97
37634;BME280;32048;49.902;22.508;2022-12-29T00:19:35;98943.78;;;3.44;70.70
37634;BME280;32048;49.902;22.508;2022-12-29T00:22:20;98930.81;;;3.39;70.84
37634;BME280;32048;49.902;22.508;2022-12-29T00:25:09;98940.25;;;3.45;70.36
37634;BME280;32048;49.902;22.508;2022-12-29T00:27:55;98938.53;;;3.45;69.92
37634;BME280;32048;49.902;22.508;2022-12-29T00:30:41;98948.78;;;3.54;69.03
37634;BME280;32048;49.902;22.508;2022-12-29T00:33:32;98949.56;;;3.58;68.98
37634;BME280;32048;49.902;22.508;2022-12-29T00:36:24;98951.31;;;3.58;68.57
37634;BME280;32048;49.902;22.508;2022-12-29T00:38:56;98959.13;;;3.59;68.29
37634;BME280;32048;49.902;22.508;2022-12-29T00:41:44;98952.91;;;3.65;67.46
37634;BME280;32048;49.902;22.508;2022-12-29T00:44:29;98954.50;;;3.72;66.74
37634;BME280;32048;49.902;22.508;2022-12-29T00:46:56;98929.09;;;3.80;66.04
37634;BME280;32048;49.902;22.508;2022-12-29T00:49:23;98947.47;;;3.75;66.70
37634;BME280;32048;49.902;22.508;2022-12-29T00:51:58;98944.94;;;3.72;66.66
37634;BME280;32048;49.902;22.508;2022-12-29T00:54:26;98957.22;;;3.67;66.95
37634;BME280;32048;49.902;22.508;2022-12-29T00:56:54;98942.38;;;3.69;66.82
37634;BME280;32048;49.902;22.508;2022-12-29T00:59:21;98946.75;;;3.69;66.56
37634;BME280;32048;49.902;22.508;2022-12-29T01:01:52;98945.88;;;3.68;66.59
37634;BME280;32048;49.902;22.508;2022-12-29T01:04:25;98932.84;;;3.67;66.54
37634;BME280;32048;49.902;22.508;2022-12-29T01:06:53;98944.22;;;3.66;66.82
37634;BME280;32048;49.902;22.508;2022-12-29T01:09:20;98927.66;;;3.65;66.74
37634;BME280;32048;49.902;22.508;2022-12-29T01:12:07;98927.75;;;3.61;67.18
37634;BME280;32048;49.902;22.508;2022-12-29T01:14:34;98934.72;;;3.62;66.40
37634;BME280;32048;49.902;22.508;2022-12-29T01:17:02;98910.34;;;3.61;66.62
37634;BME280;32048;49.902;22.508;2022-12-29T01:19:29;98902.44;;;3.64;65.92
37634;BME280;32048;49.902;22.508;2022-12-29T01:21:56;98894.31;;;3.77;64.05
37634;BME280;32048;49.902;22.508;2022-12-29T01:24:23;98907.25;;;3.83;64.13
37634;BME280;32048;49.902;22.508;2022-12-29T01:26:52;98924.69;;;3.82;64.02
37634;BME280;32048;49.902;22.508;2022-12-29T01:29:21;98924.59;;;3.87;63.03
37634;BME280;32048;49.902;22.508;2022-12-29T01:31:49;98915.03;;;3.86;63.57
37634;BME280;32048;49.902;22.508;2022-12-29T01:34:17;98907.22;;;3.84;63.35
37634;BME280;32048;49.902;22.508;2022-12-29T01:36:44;98926.41;;;3.83;63.58
37634;BME280;32048;49.902;22.508;2022-12-29T01:39:11;98878.47;;;3.86;62.82
37634;BME280;32048;49.902;22.508;2022-12-29T01:41:40;98895.00;;;3.86;62.81
37634;BME280;32048;49.902;22.508;2022-12-29T01:47:16;98889.91;;;3.80;62.63
37634;BME280;32048;49.902;22.508;2022-12-29T01:49:45;98884.72;;;3.79;61.81
37634;BME280;32048;49.902;22.508;2022-12-29T01:52:13;98887.28;;;3.82;61.65
37634;BME280;32048;49.902;22.508;2022-12-29T01:54:43;98874.16;;;3.83;61.30
37634;BME280;32048;49.902;22.508;2022-12-29T01:57:19;98880.19;;;3.85;61.48
37634;BME280;32048;49.902;22.508;2022-12-29T01:59:55;98875.09;;;3.81;61.98
37634;BME280;32048;49.902;22.508;2022-12-29T02:02:24;98869.84;;;3.82;61.69
37634;BME280;32048;49.902;22.508;2022-12-29T02:04:52;98873.41;;;3.78;61.47
37634;BME280;32048;49.902;22.508;2022-12-29T02:07:26;98868.88;;;3.86;60.44
37634;BME280;32048;49.902;22.508;2022-12-29T02:09:55;98877.59;;;3.85;60.42
37634;BME280;32048;49.902;22.508;2022-12-29T02:12:23;98887.09;;;3.88;60.37
37634;BME280;32048;49.902;22.508;2022-12-29T02:14:55;98888.00;;;3.88;58.87
37634;BME280;32048;49.902;22.508;2022-12-29T02:17:41;98874.75;;;3.94;58.69
37634;BME280;32048;49.902;22.508;2022-12-29T02:23:22;98894.88;;;3.92;58.09
37634;BME280;32048;49.902;22.508;2022-12-29T02:26:05;98893.22;;;3.88;58.13
37634;BME280;32048;49.902;22.508;2022-12-29T02:31:17;98878.19;;;3.96;57.28
37634;BME280;32048;49.902;22.508;2022-12-29T02:37:05;98867.69;;;4.00;55.88
37634;BME280;32048;49.902;22.508;2022-12-29T02:44:54;98862.41;;;4.01;55.26
37634;BME280;32048;49.902;22.508;2022-12-29T02:52:36;98853.00;;;3.94;54.99
37634;BME280;32048;49.902;22.508;2022-12-29T02:55:05;98855.69;;;3.92;54.95
37634;BME280;32048;49.902;22.508;2022-12-29T02:57:34;98852.06;;;3.96;54.21
37634;BME280;32048;49.902;22.508;2022-12-29T03:00:12;98832.16;;;3.92;54.65
37634;BME280;32048;49.902;22.508;2022-12-29T03:11:16;98832.09;;;3.95;53.91
37634;BME280;32048;49.902;22.508;2022-12-29T03:14:07;98826.75;;;4.00;52.94
37634;BME280;32048;49.902;22.508;2022-12-29T03:16:59;98841.69;;;3.95;53.78
37634;BME280;32048;49.902;22.508;2022-12-29T03:19:36;98827.59;;;4.01;52.71
37634;BME280;32048;49.902;22.508;2022-12-29T03:22:08;98841.56;;;4.00;53.13
37634;BME280;32048;49.902;22.508;2022-12-29T03:25:01;98834.72;;;3.94;52.89
37634;BME280;32048;49.902;22.508;2022-12-29T03:27:33;98846.91;;;3.95;52.69
37634;BME280;32048;49.902;22.508;2022-12-29T03:30:03;98835.53;;;3.96;52.77
37634;BME280;32048;49.902;22.508;2022-12-29T03:32:36;98849.63;;;3.90;52.91
37634;BME280;32048;49.902;22.508;2022-12-29T03:35:05;98846.09;;;3.93;52.39
37634;BME280;32048;49.902;22.508;2022-12-29T03:37:39;98841.72;;;3.93;52.61
37634;BME280;32048;49.902;22.508;2022-12-29T03:40:07;98828.72;;;3.90;52.38
37634;BME280;32048;49.902;22.508;2022-12-29T03:42:36;98844.47;;;3.87;52.93
37634;BME280;32048;49.902;22.508;2022-12-29T03:45:04;98847.97;;;3.86;52.48
37634;BME280;32048;49.902;22.508;2022-12-29T03:47:33;98826.34;;;3.81;53.20
37634;BME280;32048;49.902;22.508;2022-12-29T03:50:00;98825.53;;;3.78;53.43
37634;BME280;32048;49.902;22.508;2022-12-29T03:52:27;98840.41;;;3.74;53.09
37634;BME280;32048;49.902;22.508;2022-12-29T03:54:54;98839.53;;;3.75;53.21
37634;BME280;32048;49.902;22.508;2022-12-29T03:57:21;98813.34;;;3.78;52.50
37634;BME280;32048;49.902;22.508;2022-12-29T03:59:48;98817.69;;;3.79;52.91
37634;BME280;32048;49.902;22.508;2022-12-29T04:02:16;98821.13;;;3.81;52.56
37634;BME280;32048;49.902;22.508;2022-12-29T04:04:44;98814.78;;;3.90;51.92
37634;BME280;32048;49.902;22.508;2022-12-29T04:07:11;98806.13;;;3.88;52.86
37634;BME280;32048;49.902;22.508;2022-12-29T04:09:38;98812.22;;;3.88;51.99
37634;BME280;32048;49.902;22.508;2022-12-29T04:12:05;98804.44;;;3.85;52.38
37634;BME280;32048;49.902;22.508;2022-12-29T04:14:32;98802.75;;;3.84;52.07
37634;BME280;32048;49.902;22.508;2022-12-29T04:17:00;98819.28;;;3.83;52.63
37634;BME280;32048;49.902;22.508;2022-12-29T04:19:27;98825.31;;;3.87;51.90
37634;BME280;32048;49.902;22.508;2022-12-29T04:21:54;98816.66;;;3.85;52.08
37634;BME280;32048;49.902;22.508;2022-12-29T04:24:21;98816.66;;;3.85;52.17
37634;BME280;32048;49.902;22.508;2022-12-29T04:26:48;98828.88;;;3.84;51.89
37634;BME280;32048;49.902;22.508;2022-12-29T04:29:15;98819.38;;;3.80;51.81
37634;BME280;32048;49.902;22.508;2022-12-29T04:31:43;98811.53;;;3.82;51.23
37634;BME280;32048;49.902;22.508;2022-12-29T04:34:10;98819.34;;;3.82;51.50
37634;BME280;32048;49.902;22.508;2022-12-29T04:36:37;98808.19;;;3.75;51.70
37634;BME280;32048;49.902;22.508;2022-12-29T04:39:06;98808.34;;;3.67;52.04
37634;BME280;32048;49.902;22.508;2022-12-29T04:41:34;98797.97;;;3.66;51.73
37634;BME280;32048;49.902;22.508;2022-12-29T04:44:01;98834.41;;;3.70;52.17
37634;BME280;32048;49.902;22.508;2022-12-29T04:46:28;98812.69;;;3.68;51.61
37634;BME280;32048;49.902;22.508;2022-12-29T04:48:55;98797.16;;;3.64;52.07
37634;BME280;32048;49.902;22.508;2022-12-29T04:51:23;98803.34;;;3.58;52.94
37634;BME280;32048;49.902;22.508;2022-12-29T04:53:50;98802.53;;;3.56;52.73
37634;BME280;32048;49.902;22.508;2022-12-29T04:56:17;98803.44;;;3.55;52.70
37634;BME280;32048;49.902;22.508;2022-12-29T04:58:44;98809.41;;;3.60;52.46
37634;BME280;32048;49.902;22.508;2022-12-29T05:01:11;98800.63;;;3.63;52.14
37634;BME280;32048;49.902;22.508;2022-12-29T05:03:38;98804.16;;;3.62;52.47
37634;BME280;32048;49.902;22.508;2022-12-29T05:06:06;98799.66;;;3.68;51.42
37634;BME280;32048;49.902;22.508;2022-12-29T05:08:33;98790.06;;;3.67;51.98
37634;BME280;32048;49.902;22.508;2022-12-29T05:11:00;98801.44;;;3.66;52.19
37634;BME280;32048;49.902;22.508;2022-12-29T05:13:27;98794.41;;;3.68;51.89
37634;BME280;32048;49.902;22.508;2022-12-29T05:15:54;98797.06;;;3.67;51.64
37634;BME280;32048;49.902;22.508;2022-12-29T05:18:21;98784.91;;;3.66;51.71
37634;BME280;32048;49.902;22.508;2022-12-29T05:20:49;98798.78;;;3.68;51.95
37634;BME280;32048;49.902;22.508;2022-12-29T05:23:16;98782.09;;;3.73;51.45
37634;BME280;32048;49.902;22.508;2022-12-29T05:25:44;98797.78;;;3.73;51.78
37634;BME280;32048;49.902;22.508;2022-12-29T05:28:14;98778.56;;;3.76;50.76
37634;BME280;32048;49.902;22.508;2022-12-29T05:30:41;98791.66;;;3.74;51.83
37634;BME280;32048;49.902;22.508;2022-12-29T05:33:08;98803.75;;;3.79;51.37
37634;BME280;32048;49.902;22.508;2022-12-29T05:35:38;98790.63;;;3.82;51.56
37634;BME280;32048;49.902;22.508;2022-12-29T05:38:05;98795.78;;;3.83;51.93
37634;BME280;32048;49.902;22.508;2022-12-29T05:40:33;98802.78;;;3.83;52.00
37634;BME280;32048;49.902;22.508;2022-12-29T05:43:00;98799.34;;;3.81;51.71
37634;BME280;32048;49.902;22.508;2022-12-29T05:45:27;98800.22;;;3.81;52.09
37634;BME280;32048;49.902;22.508;2022-12-29T05:47:54;98797.56;;;3.83;52.25
37634;BME280;32048;49.902;22.508;2022-12-29T05:50:21;98815.72;;;3.87;51.74
37634;BME280;32048;49.902;22.508;2022-12-29T05:52:48;98806.94;;;3.91;51.81
37634;BME280;32048;49.902;22.508;2022-12-29T05:55:16;98806.78;;;3.98;51.12
37634;BME280;32048;49.902;22.508;2022-12-29T05:57:44;98820.66;;;4.00;51.07
37634;BME280;32048;49.902;22.508;2022-12-29T06:00:12;98804.91;;;4.03;51.03
37634;BME280;32048;49.902;22.508;2022-12-29T06:02:39;98802.31;;;4.01;51.34
37634;BME280;32048;49.902;22.508;2022-12-29T06:05:07;98807.66;;;3.96;52.44
37634;BME280;32048;49.902;22.508;2022-12-29T06:07:34;98783.25;;;3.99;51.61
37634;BME280;32048;49.902;22.508;2022-12-29T06:10:02;98794.47;;;4.01;51.58
37634;BME280;32048;49.902;22.508;2022-12-29T06:12:29;98794.44;;;4.04;52.09
37634;BME280;32048;49.902;22.508;2022-12-29T06:14:56;98788.28;;;4.05;51.45
37634;BME280;32048;49.902;22.508;2022-12-29T06:17:23;98796.97;;;4.06;51.26
37634;BME280;32048;49.902;22.508;2022-12-29T06:19:50;98793.47;;;4.08;51.70
37634;BME280;32048;49.902;22.508;2022-12-29T06:22:17;98779.34;;;4.14;51.48
37634;BME280;32048;49.902;22.508;2022-12-29T06:24:44;98770.47;;;4.21;50.70
37634;BME280;32048;49.902;22.508;2022-12-29T06:27:11;98790.53;;;4.19;51.03
37634;BME280;32048;49.902;22.508;2022-12-29T06:29:39;98780.09;;;4.19;51.00
37634;BME280;32048;49.902;22.508;2022-12-29T06:32:07;98788.72;;;4.23;50.95
37634;BME280;32048;49.902;22.508;2022-12-29T06:34:34;98799.16;;;4.24;51.51
37634;BME280;32048;49.902;22.508;2022-12-29T06:37:01;98797.47;;;4.22;51.87
37634;BME280;32048;49.902;22.508;2022-12-29T06:39:29;98795.63;;;4.25;51.39
37634;BME280;32048;49.902;22.508;2022-12-29T06:41:56;98806.09;;;4.25;51.71
37634;BME280;32048;49.902;22.508;2022-12-29T06:44:23;98811.13;;;4.33;51.41
37634;BME280;32048;49.902;22.508;2022-12-29T06:46:50;98795.44;;;4.33;52.00
37634;BME280;32048;49.902;22.508;2022-12-29T06:49:17;98807.59;;;4.34;51.26
37634;BME280;32048;49.902;22.508;2022-12-29T06:51:45;98783.09;;;4.38;50.79
37634;BME280;32048;49.902;22.508;2022-12-29T06:54:12;98785.59;;;4.43;51.04
37634;BME280;32048;49.902;22.508;2022-12-29T06:56:40;98790.78;;;4.44;51.20
37634;BME280;32048;49.902;22.508;2022-12-29T06:59:08;98788.06;;;4.49;50.44
37634;BME280;32048;49.902;22.508;2022-12-29T07:01:36;98777.75;;;4.43;51.71
37634;BME280;32048;49.902;22.508;2022-12-29T07:04:03;98823.91;;;4.44;51.45
37634;BME280;32048;49.902;22.508;2022-12-29T07:06:30;98795.94;;;4.47;51.47
37634;BME280;32048;49.902;22.508;2022-12-29T07:08:58;98788.06;;;4.49;51.53
37634;BME280;32048;49.902;22.508;2022-12-29T07:11:25;98792.41;;;4.48;52.01
37634;BME280;32048;49.902;22.508;2022-12-29T07:13:52;98785.25;;;4.55;51.83
37634;BME280;32048;49.902;22.508;2022-12-29T07:16:20;98803.38;;;4.63;51.10
37634;BME280;32048;49.902;22.508;2022-12-29T07:18:47;98805.03;;;4.65;51.27
37634;BME280;32048;49.902;22.508;2022-12-29T07:21:14;98785.88;;;4.65;51.08
37634;BME280;32048;49.902;22.508;2022-12-29T07:23:41;98789.25;;;4.68;51.52
37634;BME280;32048;49.902;22.508;2022-12-29T07:26:12;98783.25;;;4.65;52.30
37634;BME280;32048;49.902;22.508;2022-12-29T07:28:40;98776.25;;;4.65;52.18
37634;BME280;32048;49.902;22.508;2022-12-29T07:31:14;98775.53;;;4.60;53.17
37634;BME280;32048;49.902;22.508;2022-12-29T07:33:42;98779.78;;;4.64;52.83
37634;BME280;32048;49.902;22.508;2022-12-29T07:36:10;98775.41;;;4.65;52.74
37634;BME280;32048;49.902;22.508;2022-12-29T07:38:38;98778.84;;;4.67;52.92
37634;BME280;32048;49.902;22.508;2022-12-29T07:41:05;98739.50;;;4.70;53.23
37634;BME280;32048;49.902;22.508;2022-12-29T07:43:33;98754.34;;;4.69;53.53
37634;BME280;32048;49.902;22.508;2022-12-29T07:46:00;98752.50;;;4.73;53.58
37634;BME280;32048;49.902;22.508;2022-12-29T07:48:27;98753.28;;;4.76;52.78
37634;BME280;32048;49.902;22.508;2022-12-29T07:50:54;98757.69;;;4.74;53.27
37634;BME280;32048;49.902;22.508;2022-12-29T07:53:21;98746.16;;;4.82;53.10
37634;BME280;32048;49.902;22.508;2022-12-29T07:55:48;98753.00;;;4.86;53.07
37634;BME280;32048;49.902;22.508;2022-12-29T07:58:15;98747.63;;;4.90;53.05
37634;BME280;32048;49.902;22.508;2022-12-29T08:00:42;98747.47;;;4.96;52.92
37634;BME280;32048;49.902;22.508;2022-12-29T08:03:10;98748.34;;;4.95;52.96
37634;BME280;32048;49.902;22.508;2022-12-29T08:05:37;98734.34;;;4.98;52.60
37634;BME280;32048;49.902;22.508;2022-12-29T08:08:04;98737.81;;;4.98;52.89
37634;BME280;32048;49.902;22.508;2022-12-29T08:10:31;98745.50;;;5.05;52.91
37634;BME280;32048;49.902;22.508;2022-12-29T08:13:00;98745.50;;;5.05;53.05
37634;BME280;32048;49.902;22.508;2022-12-29T08:15:27;98733.13;;;5.10;52.70
37634;BME280;32048;49.902;22.508;2022-12-29T08:17:58;98719.78;;;5.17;52.58
37634;BME280;32048;49.902;22.508;2022-12-29T08:20:25;98720.66;;;5.18;52.93
37634;BME280;32048;49.902;22.508;2022-12-29T08:22:52;98747.50;;;5.25;53.05
37634;BME280;32048;49.902;22.508;2022-12-29T08:25:19;98734.34;;;5.26;53.51
37634;BME280;32048;49.902;22.508;2022-12-29T08:27:46;98722.88;;;5.30;53.70
37634;BME280;32048;49.902;22.508;2022-12-29T08:30:14;98730.59;;;5.35;53.42
37634;BME280;32048;49.902;22.508;2022-12-29T08:32:41;98731.13;;;5.46;53.31
37634;BME280;32048;49.902;22.508;2022-12-29T08:35:08;98735.06;;;5.59;52.54
37634;BME280;32048;49.902;22.508;2022-12-29T08:37:36;98737.69;;;5.59;53.18
37634;BME280;32048;49.902;22.508;2022-12-29T08:40:04;98762.75;;;5.67;53.30
37634;BME280;32048;49.902;22.508;2022-12-29T08:42:32;98751.91;;;5.79;53.01
37634;BME280;32048;49.902;22.508;2022-12-29T08:44:59;98745.28;;;5.94;52.66
37634;BME280;32048;49.902;22.508;2022-12-29T08:47:27;98748.59;;;6.00;51.89
37634;BME280;32048;49.902;22.508;2022-12-29T08:49:54;98732.66;;;6.07;52.12
37634;BME280;32048;49.902;22.508;2022-12-29T08:52:21;98740.41;;;6.10;52.03
37634;BME280;32048;49.902;22.508;2022-12-29T08:54:49;98757.19;;;6.06;52.73
37634;BME280;32048;49.902;22.508;2022-12-29T08:57:16;98746.47;;;6.12;52.80
37634;BME280;32048;49.902;22.508;2022-12-29T08:59:43;98740.78;;;6.49;51.95
37634;BME280;32048;49.902;22.508;2022-12-29T09:02:11;98735.13;;;6.85;50.69
37634;BME280;32048;49.902;22.508;2022-12-29T09:04:44;98753.31;;;6.90;50.46
37634;BME280;32048;49.902;22.508;2022-12-29T09:07:12;98746.03;;;6.98;50.47
37634;BME280;32048;49.902;22.508;2022-12-29T09:09:39;98745.09;;;6.99;50.76
37634;BME280;32048;49.902;22.508;2022-12-29T09:12:06;98734.25;;;7.08;50.55
37634;BME280;32048;49.902;22.508;2022-12-29T09:14:33;98736.88;;;7.08;50.84
37634;BME280;32048;49.902;22.508;2022-12-29T09:17:00;98729.78;;;7.10;50.40
37634;BME280;32048;49.902;22.508;2022-12-29T09:19:46;98718.31;;;7.13;51.30
37634;BME280;32048;49.902;22.508;2022-12-29T09:22:14;98733.72;;;7.44;50.52
37634;BME280;32048;49.902;22.508;2022-12-29T09:24:41;98711.09;;;7.84;48.82
37634;BME280;32048;49.902;22.508;2022-12-29T09:27:08;98696.84;;;7.89;49.34
37634;BME280;32048;49.902;22.508;2022-12-29T09:29:35;98701.31;;;8.08;49.24
37634;BME280;32048;49.902;22.508;2022-12-29T09:32:02;98703.63;;;8.57;47.38
37634;BME280;32048;49.902;22.508;2022-12-29T09:34:34;98692.16;;;8.58;46.89
37634;BME280;32048;49.902;22.508;2022-12-29T09:37:06;98719.59;;;8.31;47.30
37634;BME280;32048;49.902;22.508;2022-12-29T09:39:33;98678.75;;;8.23;48.06
37634;BME280;32048;49.902;22.508;2022-12-29T09:44:47;98693.59;;;8.65;47.16
37634;BME280;32048;49.902;22.508;2022-12-29T09:47:17;98672.69;;;8.81;47.72
37634;BME280;32048;49.902;22.508;2022-12-29T09:49:50;98686.22;;;9.11;46.60
37634;BME280;32048;49.902;22.508;2022-12-29T09:52:28;98686.72;;;9.00;47.18
37634;BME280;32048;49.902;22.508;2022-12-29T09:55:01;98660.22;;;9.03;46.55
37634;BME280;32048;49.902;22.508;2022-12-29T10:00:22;98675.31;;;9.19;47.06
37634;BME280;32048;49.902;22.508;2022-12-29T10:02:54;98672.28;;;9.45;46.29
37634;BME280;32048;49.902;22.508;2022-12-29T10:10:57;98682.09;;;9.95;45.76
37634;BME280;32048;49.902;22.508;2022-12-29T10:21:39;98696.28;;;9.93;45.10
37634;BME280;32048;49.902;22.508;2022-12-29T10:24:12;98698.47;;;9.85;45.37
37634;BME280;32048;49.902;22.508;2022-12-29T10:26:41;98721.31;;;9.67;45.98
37634;BME280;32048;49.902;22.508;2022-12-29T10:29:29;98675.66;;;9.30;46.97
37634;BME280;32048;49.902;22.508;2022-12-29T10:32:04;98696.72;;;9.49;47.40
37634;BME280;32048;49.902;22.508;2022-12-29T10:34:37;98693.44;;;9.44;47.87
37634;BME280;32048;49.902;22.508;2022-12-29T10:39:48;98678.72;;;9.40;47.57
37634;BME280;32048;49.902;22.508;2022-12-29T10:42:28;98669.19;;;9.54;47.65
37634;BME280;32048;49.902;22.508;2022-12-29T10:44:56;98692.81;;;9.39;47.55
37634;BME280;32048;49.902;22.508;2022-12-29T10:47:31;98673.84;;;9.13;48.97
37634;BME280;32048;49.902;22.508;2022-12-29T10:50:02;98662.59;;;8.90;49.93
37634;BME280;32048;49.902;22.508;2022-12-29T10:52:30;98674.38;;;8.63;50.47
37634;BME280;32048;49.902;22.508;2022-12-29T10:55:03;98677.28;;;8.36;52.37
37634;BME280;32048;49.902;22.508;2022-12-29T10:57:36;98664.34;;;8.31;53.22
37634;BME280;32048;49.902;22.508;2022-12-29T11:00:12;98673.16;;;8.51;52.39
37634;BME280;32048;49.902;22.508;2022-12-29T11:02:53;98683.13;;;8.44;52.47
37634;BME280;32048;49.902;22.508;2022-12-29T11:08:17;98666.47;;;8.23;52.94
37634;BME280;32048;49.902;22.508;2022-12-29T11:11:03;98668.44;;;7.98;54.15
37634;BME280;32048;49.902;22.508;2022-12-29T11:13:33;98666.34;;;7.85;54.74
37634;BME280;32048;49.902;22.508;2022-12-29T11:16:05;98677.50;;;7.70;55.75
37634;BME280;32048;49.902;22.508;2022-12-29T11:18:35;98666.16;;;7.69;57.24
37634;BME280;32048;49.902;22.508;2022-12-29T11:21:27;98674.03;;;7.69;56.94
37634;BME280;32048;49.902;22.508;2022-12-29T11:24:03;98677.56;;;7.68;57.07
37634;BME280;32048;49.902;22.508;2022-12-29T11:26:32;98687.28;;;7.66;57.18
37634;BME280;32048;49.902;22.508;2022-12-29T11:31:52;98677.75;;;7.64;57.06
37634;BME280;32048;49.902;22.508;2022-12-29T11:34:33;98665.28;;;7.69;57.62
37634;BME280;32048;49.902;22.508;2022-12-29T11:37:19;98694.00;;;7.74;56.80
37634;BME280;32048;49.902;22.508;2022-12-29T11:40:06;98663.84;;;7.82;56.46
37634;BME280;32048;49.902;22.508;2022-12-29T11:42:53;98667.84;;;7.70;57.55
37634;BME280;32048;49.902;22.508;2022-12-29T11:45:24;98675.97;;;7.64;57.42
37634;BME280;32048;49.902;22.508;2022-12-29T11:47:56;98695.25;;;7.65;57.84
37634;BME280;32048;49.902;22.508;2022-12-29T11:50:34;98673.94;;;7.71;57.59
37634;BME280;32048;49.902;22.508;2022-12-29T11:53:07;98671.25;;;7.73;58.46
37634;BME280;32048;49.902;22.508;2022-12-29T11:55:51;98681.81;;;7.71;58.56
37634;BME280;32048;49.902;22.508;2022-12-29T11:58:18;98677.75;;;7.64;59.37
37634;BME280;32048;49.902;22.508;2022-12-29T12:00:47;98674.28;;;7.63;59.62
37634;BME280;32048;49.902;22.508;2022-12-29T12:03:20;98655.63;;;7.69;58.96
37634;BME280;32048;49.902;22.508;2022-12-29T12:05:54;98670.66;;;7.66;59.32
37634;BME280;32048;49.902;22.508;2022-12-29T12:11:15;98667.94;;;7.69;59.67
37634;BME280;32048;49.902;22.508;2022-12-29T12:13:58;98646.75;;;7.72;59.48
37634;BME280;32048;49.902;22.508;2022-12-29T12:19:20;98653.59;;;7.76;59.43
37634;BME280;32048;49.902;22.508;2022-12-29T12:21:56;98657.72;;;7.61;60.77
37634;BME280;32048;49.902;22.508;2022-12-29T12:27:14;98674.94;;;7.68;60.09
37634;BME280;32048;49.902;22.508;2022-12-29T12:29:59;98670.72;;;7.64;60.99
37634;BME280;32048;49.902;22.508;2022-12-29T12:32:44;98649.69;;;7.64;60.49
37634;BME280;32048;49.902;22.508;2022-12-29T12:35:15;98656.91;;;7.59;60.70
37634;BME280;32048;49.902;22.508;2022-12-29T12:37:52;98635.28;;;7.53;61.73
37634;BME280;32048;49.902;22.508;2022-12-29T12:57:51;98648.56;;;8.52;57.44
37634;BME280;32048;49.902;22.508;2022-12-29T13:00:11;98666.13;;;8.51;57.03
37634;BME280;32048;49.902;22.508;2022-12-29T13:11:02;98655.63;;;8.10;59.40
37634;BME280;32048;49.902;22.508;2022-12-29T13:16:04;98666.22;;;8.09;60.24
37634;BME280;32048;49.902;22.508;2022-12-29T13:18:57;98644.25;;;8.10;60.27
37634;BME280;32048;49.902;22.508;2022-12-29T13:27:29;98651.97;;;7.94;62.02
37634;BME280;32048;49.902;22.508;2022-12-29T13:30:17;98642.94;;;8.00;61.47
37634;BME280;32048;49.902;22.508;2022-12-29T13:37:57;98642.03;;;8.01;61.63
37634;BME280;32048;49.902;22.508;2022-12-29T13:40:28;98655.63;;;7.90;62.50
37634;BME280;32048;49.902;22.508;2022-12-29T13:43:01;98668.38;;;7.79;63.15
37634;BME280;32048;49.902;22.508;2022-12-29T13:45:30;98637.84;;;7.76;63.72
37634;BME280;32048;49.902;22.508;2022-12-29T13:48:21;98636.69;;;7.61;64.43
37634;BME280;32048;49.902;22.508;2022-12-29T13:50:55;98641.34;;;7.55;65.38
37634;BME280;32048;49.902;22.508;2022-12-29T14:01:39;98658.69;;;7.59;65.40
37634;BME280;32048;49.902;22.508;2022-12-29T14:04:21;98663.59;;;7.46;66.35
37634;BME280;32048;49.902;22.508;2022-12-29T14:07:05;98660.97;;;7.46;66.34
37634;BME280;32048;49.902;22.508;2022-12-29T14:12:30;98651.41;;;7.23;67.27
37634;BME280;32048;49.902;22.508;2022-12-29T14:17:39;98622.66;;;6.98;69.60
37634;BME280;32048;49.902;22.508;2022-12-29T14:20:20;98650.09;;;6.89;70.38
37634;BME280;32048;49.902;22.508;2022-12-29T14:22:58;98656.34;;;6.86;70.84
37634;BME280;32048;49.902;22.508;2022-12-29T14:28:31;98666.13;;;6.81;72.14
37634;BME280;32048;49.902;22.508;2022-12-29T14:31:03;98641.78;;;6.78;72.75
37634;BME280;32048;49.902;22.508;2022-12-29T14:33:33;98660.13;;;6.79;73.00
37634;BME280;32048;49.902;22.508;2022-12-29T14:36:27;98672.66;;;6.71;73.86
37634;BME280;32048;49.902;22.508;2022-12-29T14:39:00;98652.66;;;6.69;73.91
37634;BME280;32048;49.902;22.508;2022-12-29T14:41:31;98634.63;;;6.59;74.91
37634;BME280;32048;49.902;22.508;2022-12-29T14:49:16;98677.34;;;6.39;77.27
37634;BME280;32048;49.902;22.508;2022-12-29T14:51:45;98673.09;;;6.35;77.88
37634;BME280;32048;49.902;22.508;2022-12-29T14:57:15;98686.44;;;6.29;79.30
37634;BME280;32048;49.902;22.508;2022-12-29T14:59:47;98671.53;;;6.30;79.38
37634;BME280;32048;49.902;22.508;2022-12-29T15:02:20;98679.50;;;6.28;80.04
37634;BME280;32048;49.902;22.508;2022-12-29T15:04:49;98681.34;;;6.24;80.64
37634;BME280;32048;49.902;22.508;2022-12-29T15:07:24;98659.41;;;6.27;80.82
37634;BME280;32048;49.902;22.508;2022-12-29T15:09:58;98691.84;;;6.24;81.07
37634;BME280;32048;49.902;22.508;2022-12-29T15:12:47;98679.91;;;6.16;81.95
37634;BME280;32048;49.902;22.508;2022-12-29T15:15:26;98684.13;;;6.20;82.28
37634;BME280;32048;49.902;22.508;2022-12-29T15:17:53;98685.97;;;6.18;82.46
37634;BME280;32048;49.902;22.508;2022-12-29T15:20:31;98682.44;;;6.19;82.54
37634;BME280;32048;49.902;22.508;2022-12-29T15:23:02;98677.19;;;6.19;83.05
37634;BME280;32048;49.902;22.508;2022-12-29T15:25:31;98695.75;;;6.13;83.67
37634;BME280;32048;49.902;22.508;2022-12-29T15:28:01;98684.59;;;6.08;84.26
37634;BME280;32048;49.902;22.508;2022-12-29T15:30:29;98689.66;;;6.12;84.33
37634;BME280;32048;49.902;22.508;2022-12-29T15:32:56;98693.06;;;6.14;83.67